Time;durP1;ratioP1;P1;durP2;ratioP2;P2;SDS_P1;SDS_P2;PMS_P1;PMS_P2;Temp;Humidity;BMP_temperature;BMP_pressure;BME280_temperature;BME280_humidity;BME280_pressure;Samples;Min_cycle;Max_cycle;Signal;HPM_P1;HPM_P2
2021/12/06 00:00:23;;;;;;;3.78;1.23;;;17.80;53.00;;;;;;5074640;28;20088;-51
2021/12/06 00:02:52;;;;;;;1.35;0.30;;;17.70;53.10;;;;;;5040675;28;20048;-48
2021/12/06 00:05:19;;;;;;;1.40;0.82;;;17.70;53.10;;;;;;5073080;28;20028;-53
2021/12/06 00:07:48;;;;;;;1.13;0.20;;;17.70;53.10;;;;;;5077568;28;20040;-47
2021/12/06 00:10:15;;;;;;;1.17;0.85;;;17.70;53.20;;;;;;5068883;28;20048;-52
2021/12/06 00:12:43;;;;;;;1.27;0.35;;;17.70;53.20;;;;;;5080241;28;20139;-48
2021/12/06 00:15:13;;;;;;;1.77;0.70;;;17.70;53.20;;;;;;5076551;28;20041;-49
2021/12/06 00:17:41;;;;;;;0.85;0.40;;;17.60;53.30;;;;;;5075543;28;20043;-49
2021/12/06 00:20:11;;;;;;;0.40;0.20;;;17.60;53.40;;;;;;5072147;28;20037;-50
2021/12/06 00:22:40;;;;;;;2.65;0.20;;;17.60;53.40;;;;;;5073559;28;20122;-49
2021/12/06 00:25:09;;;;;;;0.60;0.10;;;17.60;53.30;;;;;;5080846;28;20505;-50
2021/12/06 00:27:38;;;;;;;0.80;0.10;;;17.60;53.40;;;;;;5078334;28;20040;-49
2021/12/06 00:30:09;;;;;;;0.90;0.20;;;17.60;53.40;;;;;;5056294;28;20049;-52
2021/12/06 00:32:36;;;;;;;1.02;0.10;;;17.60;53.40;;;;;;5059255;28;20201;-48
2021/12/06 00:35:04;;;;;;;1.50;0.88;;;17.60;53.30;;;;;;5078306;28;20032;-48
2021/12/06 00:37:40;;;;;;;1.90;0.47;;;17.60;53.40;;;;;;5076248;28;20140;-46
2021/12/06 00:40:11;;;;;;;0.40;0.10;;;17.60;53.40;;;;;;5091309;28;20098;-47
2021/12/06 00:42:38;;;;;;;1.45;0.30;;;17.60;53.40;;;;;;5081420;28;20040;-51
2021/12/06 00:45:07;;;;;;;2.75;0.28;;;17.60;53.30;;;;;;5077566;28;20130;-48
2021/12/06 00:47:34;;;;;;;0.80;0.10;;;17.50;53.30;;;;;;5068161;28;20067;-52
2021/12/06 00:50:01;;;;;;;0.30;0.20;;;17.50;53.20;;;;;;5075740;28;20068;-48
2021/12/06 00:52:28;;;;;;;1.52;0.47;;;17.50;53.30;;;;;;5067697;28;20043;-51
2021/12/06 00:54:55;;;;;;;0.35;0.30;;;17.50;53.20;;;;;;5046088;28;20405;-51
2021/12/06 00:57:23;;;;;;;0.80;0.10;;;17.50;53.20;;;;;;5083953;28;20050;-47
2021/12/06 00:59:52;;;;;;;0.80;0.43;;;17.50;53.20;;;;;;5074446;28;20050;-49
2021/12/06 01:02:20;;;;;;;2.70;0.20;;;17.50;53.20;;;;;;5067578;28;20097;-50
2021/12/06 01:04:49;;;;;;;1.23;0.28;;;17.50;53.10;;;;;;5057665;28;20048;-47
2021/12/06 01:07:17;;;;;;;0.22;0.10;;;17.50;53.10;;;;;;5079849;28;20049;-47
2021/12/06 01:09:44;;;;;;;0.65;0.10;;;17.50;53.10;;;;;;5074695;28;20037;-50
2021/12/06 01:12:12;;;;;;;0.30;0.10;;;17.50;53.10;;;;;;5073175;28;20181;-50
2021/12/06 01:14:41;;;;;;;1.15;0.10;;;17.50;53.10;;;;;;5067761;28;20043;-51
2021/12/06 01:17:08;;;;;;;0.55;0.10;;;17.50;53.10;;;;;;5057281;28;20048;-51
2021/12/06 01:19:37;;;;;;;0.43;0.10;;;17.50;53.10;;;;;;5064666;28;20056;-52
2021/12/06 01:22:18;;;;;;;1.20;0.15;;;17.50;53.00;;;;;;5065697;28;20134;-51
2021/12/06 01:24:52;;;;;;;1.02;0.10;;;17.50;53.10;;;;;;5067549;28;20063;-48
2021/12/06 01:33:30;;;;;;;0.40;0.10;;;17.50;52.90;;;;;;4992814;28;20062;-50
2021/12/06 01:41:27;;;;;;;0.93;0.30;;;17.40;53.40;;;;;;4986012;28;20042;-49
2021/12/06 01:44:06;;;;;;;0.40;0.10;;;17.40;52.80;;;;;;5000649;28;20057;-49
2021/12/06 01:46:37;;;;;;;0.30;0.10;;;17.50;52.70;;;;;;4984930;28;20050;-48
2021/12/06 01:49:06;;;;;;;0.80;0.10;;;17.40;52.60;;;;;;4994246;28;20539;-46
2021/12/06 01:51:34;;;;;;;0.20;0.20;;;17.50;52.70;;;;;;4982347;28;20053;-47
2021/12/06 01:54:01;;;;;;;0.20;0.10;;;17.50;52.70;;;;;;4985798;28;20514;-50
2021/12/06 01:56:28;;;;;;;1.30;0.10;;;17.40;52.60;;;;;;4983837;28;21053;-50
2021/12/06 01:58:56;;;;;;;1.02;0.17;;;17.40;52.50;;;;;;4981681;28;20053;-46
2021/12/06 02:01:24;;;;;;;0.93;0.17;;;17.40;52.50;;;;;;4982334;28;20125;-49
2021/12/06 02:03:52;;;;;;;1.70;0.10;;;17.40;52.50;;;;;;4998526;28;20128;-49
2021/12/06 02:06:19;;;;;;;0.60;0.47;;;17.40;52.50;;;;;;4982940;28;20096;-51
2021/12/06 02:08:49;;;;;;;0.17;0.10;;;17.40;52.40;;;;;;5037997;28;20603;-51
2021/12/06 02:11:17;;;;;;;1.15;0.10;;;17.40;52.40;;;;;;5066856;28;20040;-48
2021/12/06 02:13:50;;;;;;;0.30;0.10;;;17.40;52.40;;;;;;5074826;28;20043;-46
2021/12/06 02:16:20;;;;;;;2.03;0.10;;;17.40;52.40;;;;;;5071740;28;20149;-47
2021/12/06 02:18:54;;;;;;;0.40;0.10;;;17.40;52.40;;;;;;5062714;28;20039;-50
2021/12/06 02:21:32;;;;;;;1.48;0.10;;;17.40;52.40;;;;;;5083109;28;20032;-47
2021/12/06 02:24:02;;;;;;;0.47;0.40;;;17.40;52.40;;;;;;5062779;28;20044;-49
2021/12/06 02:26:29;;;;;;;0.28;0.03;;;17.40;52.40;;;;;;5071842;28;20637;-48
2021/12/06 02:28:56;;;;;;;0.88;0.30;;;17.40;52.40;;;;;;5069145;28;20041;-50
2021/12/06 02:31:26;;;;;;;0.85;0.10;;;17.40;52.40;;;;;;5061360;28;20036;-48
2021/12/06 02:33:54;;;;;;;2.00;0.20;;;17.40;52.50;;;;;;5066293;28;20044;-53
2021/12/06 02:36:26;;;;;;;1.95;0.10;;;17.40;52.70;;;;;;5085803;28;20512;-47
2021/12/06 02:38:54;;;;;;;0.52;0.52;;;17.40;52.80;;;;;;5060724;28;20039;-49
2021/12/06 02:41:21;;;;;;;0.75;0.10;;;17.40;52.90;;;;;;5056797;28;20508;-50
2021/12/06 02:43:50;;;;;;;0.60;0.55;;;17.40;52.90;;;;;;5072380;28;20417;-49
2021/12/06 02:46:19;;;;;;;0.20;0.10;;;17.40;52.90;;;;;;5075676;28;20115;-52
2021/12/06 02:48:47;;;;;;;0.22;0.10;;;17.30;52.70;;;;;;5080127;28;20062;-47
2021/12/06 02:51:16;;;;;;;2.45;0.10;;;17.40;52.80;;;;;;5057769;28;20570;-53
2021/12/06 02:53:46;;;;;;;0.73;0.17;;;17.40;53.00;;;;;;5053717;28;20504;-48
2021/12/06 02:56:30;;;;;;;0.10;0.00;;;17.30;53.00;;;;;;5065859;28;20047;-48
2021/12/06 02:58:59;;;;;;;0.10;0.10;;;17.30;53.00;;;;;;5085405;28;20101;-49
2021/12/06 03:01:33;;;;;;;2.05;0.50;;;17.30;53.00;;;;;;5069817;28;20040;-51
2021/12/06 03:04:01;;;;;;;0.20;0.10;;;17.30;53.00;;;;;;5063337;28;20093;-48
2021/12/06 03:06:29;;;;;;;0.50;0.40;;;17.40;52.90;;;;;;5049299;28;20097;-50
2021/12/06 03:09:05;;;;;;;0.28;0.20;;;17.30;52.90;;;;;;5066060;28;20040;-47
2021/12/06 03:11:35;;;;;;;0.20;0.10;;;17.30;52.80;;;;;;5070105;28;20036;-49
2021/12/06 03:14:02;;;;;;;0.03;0.00;;;17.30;52.80;;;;;;5066378;28;20070;-50
2021/12/06 03:16:30;;;;;;;0.85;0.10;;;17.30;52.80;;;;;;5066080;28;20062;-51
2021/12/06 03:18:58;;;;;;;0.17;0.10;;;17.30;52.80;;;;;;5061245;28;20675;-49
2021/12/06 03:21:26;;;;;;;1.08;0.40;;;17.40;52.80;;;;;;5066080;28;20036;-49
2021/12/06 03:23:55;;;;;;;0.20;0.17;;;17.30;52.90;;;;;;5073772;28;20071;-49
2021/12/06 03:26:24;;;;;;;1.73;0.10;;;17.30;52.80;;;;;;5070429;28;20036;-46
2021/12/06 03:28:55;;;;;;;0.38;0.20;;;17.30;52.80;;;;;;5051890;28;20052;-49
2021/12/06 03:31:24;;;;;;;7.60;1.35;;;17.30;52.80;;;;;;5079094;28;20060;-48
2021/12/06 03:33:55;;;;;;;0.60;0.10;;;17.30;52.90;;;;;;5075148;28;20044;-52
2021/12/06 03:36:24;;;;;;;0.32;0.00;;;17.30;53.00;;;;;;5058079;28;20056;-47
2021/12/06 03:38:53;;;;;;;1.20;0.13;;;17.30;53.00;;;;;;5054969;28;20044;-51
2021/12/06 03:41:24;;;;;;;1.17;0.00;;;17.30;53.00;;;;;;5054479;28;20048;-53
2021/12/06 03:43:52;;;;;;;0.85;0.10;;;17.30;53.00;;;;;;5070898;28;20131;-53
2021/12/06 03:46:22;;;;;;;1.00;0.25;;;17.30;52.90;;;;;;5062356;28;20123;-49
2021/12/06 03:48:50;;;;;;;0.93;0.00;;;17.30;52.90;;;;;;5060833;28;20098;-48
2021/12/06 03:51:17;;;;;;;2.30;0.00;;;17.30;52.90;;;;;;5067714;28;20322;-49
2021/12/06 03:53:45;;;;;;;0.50;0.10;;;17.30;52.80;;;;;;5063692;28;20543;-51
2021/12/06 03:56:13;;;;;;;0.55;0.10;;;17.30;52.80;;;;;;5068913;28;20055;-48
2021/12/06 03:58:44;;;;;;;0.38;0.08;;;17.30;52.90;;;;;;5069850;28;20047;-49
2021/12/06 04:01:12;;;;;;;0.30;0.03;;;17.30;52.80;;;;;;5069598;28;20473;-47
2021/12/06 04:03:42;;;;;;;1.00;0.10;;;17.30;52.80;;;;;;5080629;28;20109;-50
2021/12/06 04:06:10;;;;;;;0.40;0.00;;;17.30;52.90;;;;;;5059053;28;20508;-50
2021/12/06 04:08:37;;;;;;;1.08;0.10;;;17.30;52.80;;;;;;5078379;28;20041;-51
2021/12/06 04:11:05;;;;;;;0.88;0.30;;;17.30;52.90;;;;;;5066885;28;20062;-47
2021/12/06 04:13:35;;;;;;;0.47;0.25;;;17.30;52.90;;;;;;5068732;28;20040;-48
2021/12/06 04:16:04;;;;;;;2.78;0.10;;;17.30;52.90;;;;;;5078667;28;20123;-47
2021/12/06 04:18:34;;;;;;;0.10;0.10;;;17.30;52.90;;;;;;5080040;28;20040;-52
2021/12/06 04:21:02;;;;;;;0.10;0.10;;;17.30;52.90;;;;;;5057937;28;20068;-47
2021/12/06 04:23:29;;;;;;;1.55;0.20;;;17.30;52.80;;;;;;5053797;28;20048;-48
2021/12/06 04:25:57;;;;;;;1.75;0.17;;;17.30;52.80;;;;;;5064916;28;20040;-52
2021/12/06 04:28:28;;;;;;;0.20;0.00;;;17.30;52.90;;;;;;5061249;28;20040;-52
2021/12/06 04:30:57;;;;;;;0.60;0.08;;;17.30;53.00;;;;;;5065180;28;20044;-51
2021/12/06 04:33:26;;;;;;;0.70;0.10;;;17.30;53.10;;;;;;5067850;28;20028;-51
2021/12/06 04:35:55;;;;;;;1.65;0.10;;;17.30;53.30;;;;;;5056180;28;20044;-48
2021/12/06 04:38:22;;;;;;;2.40;0.20;;;17.30;53.30;;;;;;5077291;28;20040;-46
2021/12/06 04:40:50;;;;;;;1.52;0.57;;;17.30;53.40;;;;;;5069393;28;20119;-46
2021/12/06 04:43:18;;;;;;;1.65;0.10;;;17.30;53.40;;;;;;5061824;28;20120;-48
2021/12/06 04:45:45;;;;;;;4.00;0.22;;;17.30;53.40;;;;;;5067929;28;20119;-47
2021/12/06 04:48:12;;;;;;;0.63;0.10;;;17.30;53.40;;;;;;5076045;28;20193;-46
2021/12/06 04:50:42;;;;;;;3.60;0.10;;;17.30;53.40;;;;;;5054639;28;20043;-49
2021/12/06 04:53:13;;;;;;;0.20;0.10;;;17.30;53.40;;;;;;5056614;28;20527;-49
2021/12/06 04:55:44;;;;;;;1.05;0.10;;;17.30;53.30;;;;;;5062602;28;20036;-48
2021/12/06 04:58:14;;;;;;;1.20;0.10;;;17.30;53.20;;;;;;5066240;28;20111;-50
2021/12/06 05:00:50;;;;;;;2.58;0.10;;;17.30;53.20;;;;;;5061453;28;20046;-49
2021/12/06 05:03:18;;;;;;;1.10;0.00;;;17.30;53.30;;;;;;5059748;28;20052;-49
2021/12/06 05:05:51;;;;;;;1.33;0.10;;;17.30;53.20;;;;;;5067586;28;20032;-46
2021/12/06 05:08:23;;;;;;;2.30;0.20;;;17.30;53.20;;;;;;5068023;28;20067;-50
2021/12/06 05:10:53;;;;;;;1.00;0.10;;;17.30;53.20;;;;;;5060474;28;20036;-47
2021/12/06 05:13:22;;;;;;;2.30;0.35;;;17.30;53.10;;;;;;5074136;28;20053;-49
2021/12/06 05:15:49;;;;;;;2.45;0.10;;;17.30;53.10;;;;;;5063836;28;20454;-48
2021/12/06 05:18:17;;;;;;;2.10;0.20;;;17.30;53.00;;;;;;5066562;28;20052;-47
2021/12/06 05:20:44;;;;;;;1.73;0.43;;;17.30;53.00;;;;;;5067169;28;20063;-51
2021/12/06 05:23:13;;;;;;;0.77;0.05;;;17.30;53.00;;;;;;5064067;28;20119;-49
2021/12/06 05:25:40;;;;;;;1.73;0.20;;;17.30;53.00;;;;;;5058460;28;20781;-49
2021/12/06 05:28:08;;;;;;;0.30;0.00;;;17.30;52.90;;;;;;5081122;28;20094;-49
2021/12/06 05:30:39;;;;;;;0.57;0.10;;;17.30;52.90;;;;;;5058659;28;20048;-51
2021/12/06 05:33:09;;;;;;;0.47;0.10;;;17.30;53.00;;;;;;5067098;28;20040;-49
2021/12/06 05:35:36;;;;;;;2.50;0.17;;;17.30;53.50;;;;;;5073175;28;20048;-51
2021/12/06 05:38:04;;;;;;;1.38;0.10;;;17.30;53.00;;;;;;5075359;28;20631;-48
2021/12/06 05:40:35;;;;;;;0.20;0.10;;;17.30;53.00;;;;;;5079182;28;20040;-49
2021/12/06 05:43:04;;;;;;;1.45;0.10;;;17.30;53.00;;;;;;5081056;28;20153;-49
2021/12/06 05:45:33;;;;;;;0.45;0.10;;;17.30;53.00;;;;;;5083748;28;20032;-50
2021/12/06 05:48:00;;;;;;;1.27;0.10;;;17.30;53.30;;;;;;5083513;28;20036;-52
2021/12/06 05:50:27;;;;;;;1.08;0.08;;;17.30;53.40;;;;;;5082568;28;20039;-48
2021/12/06 05:52:56;;;;;;;0.60;0.30;;;17.30;53.40;;;;;;5081702;28;20036;-47
2021/12/06 05:55:27;;;;;;;0.10;0.10;;;17.30;53.40;;;;;;5080640;28;20710;-46
2021/12/06 05:57:56;;;;;;;1.15;0.10;;;17.30;53.40;;;;;;5080859;28;20039;-48
2021/12/06 06:00:27;;;;;;;0.20;0.10;;;17.30;53.40;;;;;;5084589;28;20051;-49
2021/12/06 06:02:55;;;;;;;1.45;0.70;;;17.30;53.40;;;;;;5072423;28;20127;-52
2021/12/06 06:05:22;;;;;;;1.17;0.10;;;17.30;53.60;;;;;;5075433;28;20040;-50
2021/12/06 06:07:49;;;;;;;2.65;0.20;;;17.30;53.50;;;;;;5071082;28;20095;-53
2021/12/06 06:10:17;;;;;;;4.65;0.10;;;17.30;53.40;;;;;;5079636;28;20559;-49
2021/12/06 06:12:44;;;;;;;11.00;0.82;;;17.30;53.40;;;;;;5075770;28;20047;-50
2021/12/06 06:15:13;;;;;;;1.27;0.25;;;17.30;53.40;;;;;;5072703;28;20063;-51
2021/12/06 06:17:43;;;;;;;1.95;0.20;;;17.30;53.40;;;;;;5081722;28;20032;-47
2021/12/06 06:20:13;;;;;;;0.65;0.22;;;17.30;53.50;;;;;;5082472;28;20055;-49
2021/12/06 06:22:41;;;;;;;2.53;0.10;;;17.30;53.60;;;;;;5082821;28;20139;-51
2021/12/06 06:25:09;;;;;;;4.45;0.88;;;17.30;53.70;;;;;;5076145;28;20453;-48
2021/12/06 06:27:36;;;;;;;0.57;0.08;;;17.30;53.80;;;;;;5075934;28;20032;-49
2021/12/06 06:30:04;;;;;;;3.03;0.05;;;17.30;53.80;;;;;;5081669;28;20603;-51
2021/12/06 06:32:33;;;;;;;1.35;0.10;;;17.30;53.80;;;;;;5059870;28;20036;-51
2021/12/06 06:35:00;;;;;;;0.10;0.00;;;17.30;53.70;;;;;;5077417;28;20036;-49
2021/12/06 06:37:27;;;;;;;6.00;1.75;;;17.30;53.70;;;;;;5079800;28;20123;-51
2021/12/06 06:39:55;;;;;;;0.13;0.00;;;17.30;53.60;;;;;;5078354;28;20500;-52
2021/12/06 06:42:23;;;;;;;1.15;0.25;;;17.30;53.60;;;;;;5080469;28;20042;-47
2021/12/06 06:44:51;;;;;;;1.02;0.10;;;17.30;53.50;;;;;;5079247;28;20047;-47
2021/12/06 06:47:19;;;;;;;0.25;0.00;;;17.30;53.50;;;;;;5078067;28;20055;-51
2021/12/06 06:49:48;;;;;;;0.00;0.00;;;17.30;53.50;;;;;;5076839;28;20423;-48
2021/12/06 06:52:15;;;;;;;0.10;0.10;;;17.30;53.40;;;;;;5082067;28;20040;-48
2021/12/06 06:54:43;;;;;;;0.52;0.00;;;17.30;53.40;;;;;;5081773;28;20075;-52
2021/12/06 06:57:10;;;;;;;0.63;0.10;;;17.20;53.30;;;;;;5079618;28;20032;-49
2021/12/06 06:59:38;;;;;;;2.60;0.30;;;17.30;53.40;;;;;;5078616;28;20043;-49
2021/12/06 07:02:06;;;;;;;0.30;0.10;;;17.30;53.40;;;;;;5080345;28;20087;-48
2021/12/06 07:04:33;;;;;;;0.13;0.13;;;17.30;53.30;;;;;;5082492;28;20401;-49
2021/12/06 07:07:02;;;;;;;1.15;0.10;;;17.30;53.30;;;;;;5081404;28;20054;-47
2021/12/06 07:09:29;;;;;;;0.28;0.20;;;17.20;53.20;;;;;;5081503;28;20105;-51
2021/12/06 07:11:58;;;;;;;0.45;0.10;;;17.30;53.20;;;;;;5079103;28;20044;-47
2021/12/06 07:14:25;;;;;;;0.60;0.00;;;17.30;53.20;;;;;;5082229;28;20653;-48
2021/12/06 07:16:53;;;;;;;0.25;0.00;;;17.20;53.10;;;;;;5086244;28;20058;-49
2021/12/06 07:19:21;;;;;;;3.58;0.10;;;17.30;53.80;;;;;;5088020;28;20059;-51
2021/12/06 07:21:48;;;;;;;0.10;0.00;;;17.30;53.20;;;;;;5083391;28;20132;-52
2021/12/06 07:24:17;;;;;;;0.65;0.10;;;17.30;53.20;;;;;;5077005;28;20048;-48
2021/12/06 07:26:44;;;;;;;1.85;0.70;;;17.30;53.20;;;;;;5077186;28;20675;-46
2021/12/06 07:29:11;;;;;;;3.25;0.40;;;17.30;53.20;;;;;;5072704;28;20040;-47
2021/12/06 07:31:38;;;;;;;2.28;0.55;;;17.30;53.10;;;;;;5074963;28;20041;-51
2021/12/06 07:34:05;;;;;;;0.88;0.10;;;17.30;53.10;;;;;;5080071;28;20032;-50
2021/12/06 07:36:33;;;;;;;1.48;0.00;;;17.30;53.10;;;;;;5075461;28;20136;-47
2021/12/06 07:39:00;;;;;;;0.70;0.43;;;17.30;53.10;;;;;;5072945;28;20520;-50
2021/12/06 07:41:29;;;;;;;0.43;0.00;;;17.20;53.00;;;;;;5074890;28;20064;-47
2021/12/06 07:43:57;;;;;;;0.95;0.10;;;17.30;53.10;;;;;;5076991;28;20048;-49
2021/12/06 07:46:25;;;;;;;0.40;0.10;;;17.30;53.10;;;;;;5077083;28;20036;-47
2021/12/06 07:48:53;;;;;;;0.30;0.10;;;17.30;53.10;;;;;;5076478;28;20048;-47
2021/12/06 07:51:21;;;;;;;1.13;0.10;;;17.30;53.00;;;;;;5060231;28;20556;-49
2021/12/06 07:53:49;;;;;;;1.17;0.70;;;17.30;53.00;;;;;;5077043;28;20119;-49
2021/12/06 07:56:16;;;;;;;1.33;0.10;;;17.20;52.90;;;;;;5075232;28;20073;-50
2021/12/06 07:58:45;;;;;;;0.10;0.08;;;17.30;53.00;;;;;;5076396;28;20163;-46
2021/12/06 08:01:12;;;;;;;0.50;0.10;;;17.30;53.00;;;;;;5082208;28;20099;-50
2021/12/06 08:03:41;;;;;;;0.10;0.00;;;17.30;52.90;;;;;;5077791;28;20041;-47
2021/12/06 08:06:09;;;;;;;0.85;0.08;;;17.30;52.90;;;;;;5075144;28;20527;-50
2021/12/06 08:08:38;;;;;;;1.25;0.08;;;17.30;52.90;;;;;;5073868;28;20060;-48
2021/12/06 08:11:10;;;;;;;0.77;0.20;;;17.30;52.80;;;;;;5071602;28;20110;-47
2021/12/06 08:13:39;;;;;;;0.60;0.10;;;17.30;52.80;;;;;;5072029;28;20071;-49
2021/12/06 08:16:13;;;;;;;0.22;0.10;;;17.30;52.80;;;;;;5078876;28;20105;-48
2021/12/06 08:18:40;;;;;;;0.10;0.10;;;17.30;52.80;;;;;;5056514;28;20055;-51
2021/12/06 08:21:08;;;;;;;0.75;0.00;;;17.30;52.70;;;;;;5073503;28;20048;-48
2021/12/06 08:23:35;;;;;;;1.75;0.10;;;17.30;52.70;;;;;;5082766;28;20051;-48
2021/12/06 08:26:04;;;;;;;1.27;0.20;;;17.30;52.80;;;;;;5083680;28;20126;-47
2021/12/06 08:28:34;;;;;;;0.10;0.10;;;17.40;53.70;;;;;;5084593;28;20043;-48
2021/12/06 08:31:03;;;;;;;0.80;0.03;;;17.40;53.20;;;;;;5082199;28;20106;-46
2021/12/06 08:33:32;;;;;;;2.63;0.10;;;17.40;53.20;;;;;;5082550;28;20047;-51
2021/12/06 08:36:00;;;;;;;7.90;0.10;;;17.40;53.30;;;;;;5075572;28;20405;-46
2021/12/06 08:38:31;;;;;;;3.05;0.15;;;17.40;53.40;;;;;;5081086;28;20043;-59
2021/12/06 08:41:00;;;;;;;3.30;0.10;;;17.40;53.60;;;;;;5073211;28;20520;-60
2021/12/06 08:43:28;;;;;;;3.65;0.60;;;17.40;53.80;;;;;;5081668;28;20726;-60
2021/12/06 08:45:59;;;;;;;2.60;0.10;;;17.50;54.00;;;;;;5081224;28;20500;-60
2021/12/06 08:48:30;;;;;;;1.45;0.10;;;17.60;54.20;;;;;;5077678;28;20046;-63
2021/12/06 08:51:01;;;;;;;1.88;0.15;;;17.60;54.20;;;;;;5075167;28;20040;-62
2021/12/06 08:53:30;;;;;;;3.13;0.10;;;17.60;54.20;;;;;;5069736;28;20048;-63
2021/12/06 08:55:58;;;;;;;2.83;0.10;;;17.60;54.10;;;;;;5072367;28;20068;-62
2021/12/06 08:58:25;;;;;;;0.20;0.10;;;17.70;54.10;;;;;;5078967;28;20098;-62
2021/12/06 09:00:53;;;;;;;5.45;0.25;;;17.70;54.00;;;;;;5079693;28;20042;-61
2021/12/06 09:03:21;;;;;;;2.45;0.30;;;17.70;54.00;;;;;;5081998;28;20067;-61
2021/12/06 09:05:51;;;;;;;0.68;0.10;;;17.70;53.90;;;;;;5066916;28;20039;-63
2021/12/06 09:08:19;;;;;;;2.92;0.20;;;17.80;53.90;;;;;;5074872;28;20051;-65
2021/12/06 09:10:49;;;;;;;2.25;0.20;;;17.80;53.80;;;;;;5082275;28;20036;-60
2021/12/06 09:13:17;;;;;;;2.85;1.10;;;17.80;53.70;;;;;;5037896;28;20524;-60
2021/12/06 09:15:45;;;;;;;1.15;0.20;;;17.80;53.60;;;;;;5084971;28;20036;-58
2021/12/06 09:18:12;;;;;;;1.60;0.38;;;17.90;53.60;;;;;;5076674;28;20138;-60
2021/12/06 09:20:44;;;;;;;2.53;0.70;;;17.90;53.50;;;;;;5072355;28;20036;-60
2021/12/06 09:23:12;;;;;;;0.93;0.15;;;17.90;53.30;;;;;;5071998;28;20106;-59
2021/12/06 09:25:42;;;;;;;0.30;0.10;;;17.90;53.30;;;;;;5080539;28;20408;-59
2021/12/06 09:28:10;;;;;;;1.13;0.17;;;17.90;53.20;;;;;;5082505;28;20044;-58
2021/12/06 09:30:38;;;;;;;3.58;0.40;;;17.90;53.10;;;;;;5083061;28;20036;-58
2021/12/06 09:33:09;;;;;;;5.18;0.15;;;18.00;53.10;;;;;;5083035;28;20861;-57
2021/12/06 09:35:39;;;;;;;1.30;0.20;;;17.90;52.90;;;;;;5070257;28;20071;-67
2021/12/06 09:38:07;;;;;;;4.03;0.35;;;17.90;52.90;;;;;;5069439;28;20132;-53
2021/12/06 09:40:37;;;;;;;7.50;0.85;;;18.00;52.90;;;;;;5077727;28;20063;-56
2021/12/06 09:43:08;;;;;;;5.43;0.52;;;18.00;52.90;;;;;;5073817;28;20047;-54
2021/12/06 09:45:36;;;;;;;3.03;0.35;;;18.00;52.90;;;;;;5073952;28;20048;-51
2021/12/06 09:48:04;;;;;;;3.50;0.10;;;18.10;52.80;;;;;;5055621;28;20059;-51
2021/12/06 09:50:37;;;;;;;0.65;0.25;;;18.10;52.80;;;;;;5074557;28;20036;-46
2021/12/06 09:53:08;;;;;;;0.90;0.38;;;18.10;52.80;;;;;;5077100;28;20032;-53
2021/12/06 09:55:37;;;;;;;2.75;0.10;;;18.10;52.60;;;;;;5047141;28;20073;-50
2021/12/06 09:58:07;;;;;;;2.95;0.20;;;18.10;52.60;;;;;;5079902;28;20059;-48
2021/12/06 10:00:37;;;;;;;1.27;0.10;;;18.20;52.60;;;;;;5075186;28;20043;-49
2021/12/06 10:03:04;;;;;;;0.50;0.10;;;18.20;52.50;;;;;;5072693;28;20506;-53
2021/12/06 10:05:32;;;;;;;0.50;0.47;;;18.20;52.50;;;;;;5073310;28;20122;-47
2021/12/06 10:08:00;;;;;;;1.20;0.73;;;18.20;52.40;;;;;;5076636;28;20060;-53
2021/12/06 10:10:29;;;;;;;1.95;0.22;;;18.20;52.40;;;;;;5075632;28;20082;-57
2021/12/06 10:12:57;;;;;;;1.58;0.20;;;18.20;52.30;;;;;;5074100;28;20082;-52
2021/12/06 10:15:29;;;;;;;1.48;0.40;;;18.20;52.20;;;;;;5072934;28;20120;-59
2021/12/06 10:17:58;;;;;;;4.22;0.10;;;18.20;52.50;;;;;;5070205;28;20032;-52
2021/12/06 10:20:27;;;;;;;4.30;0.10;;;18.20;52.10;;;;;;5072314;28;20070;-53
2021/12/06 10:22:54;;;;;;;2.33;0.10;;;18.20;52.00;;;;;;5072276;28;20045;-52
2021/12/06 10:25:23;;;;;;;0.70;0.43;;;18.20;51.80;;;;;;5083092;28;20041;-55
2021/12/06 10:27:55;;;;;;;6.57;0.50;;;18.20;51.60;;;;;;5076658;28;20041;-53
2021/12/06 10:30:23;;;;;;;0.63;0.10;;;18.20;51.50;;;;;;5076210;28;20125;-50
2021/12/06 10:33:02;;;;;;;0.22;0.15;;;18.20;51.40;;;;;;5075004;28;20500;-54
2021/12/06 10:35:30;;;;;;;1.65;0.20;;;18.20;51.20;;;;;;5069691;28;20085;-54
2021/12/06 10:37:59;;;;;;;2.72;0.10;;;18.20;51.20;;;;;;5070407;28;20475;-55
2021/12/06 10:40:29;;;;;;;3.10;0.10;;;18.20;51.10;;;;;;5079366;28;20041;-52
2021/12/06 10:42:59;;;;;;;1.00;0.10;;;18.20;51.10;;;;;;5077430;28;20041;-50
2021/12/06 10:45:28;;;;;;;3.20;0.38;;;18.20;51.00;;;;;;5076259;28;20050;-52
2021/12/06 10:48:10;;;;;;;0.75;0.57;;;18.20;50.90;;;;;;5073195;28;20052;-54
2021/12/06 10:50:40;;;;;;;0.70;0.20;;;18.30;50.90;;;;;;5081132;28;20036;-53
2021/12/06 10:53:07;;;;;;;0.82;0.10;;;18.30;50.80;;;;;;5071290;28;20148;-53
2021/12/06 10:55:35;;;;;;;0.60;0.10;;;18.30;50.80;;;;;;5075586;28;20464;-52
2021/12/06 10:58:05;;;;;;;0.77;0.00;;;18.30;50.70;;;;;;5075700;28;20040;-53
2021/12/06 11:00:46;;;;;;;1.27;0.05;;;18.30;50.60;;;;;;5076359;28;20078;-55
2021/12/06 11:03:26;;;;;;;2.47;0.10;;;18.30;50.50;;;;;;5073880;28;20090;-54
2021/12/06 11:05:58;;;;;;;2.05;0.45;;;18.30;50.50;;;;;;5080968;28;20052;-50
2021/12/06 11:08:26;;;;;;;0.70;0.10;;;18.30;50.50;;;;;;5079840;28;20454;-49
2021/12/06 11:10:56;;;;;;;0.10;0.10;;;18.30;50.40;;;;;;5081450;28;20123;-49
2021/12/06 11:13:26;;;;;;;0.43;0.28;;;18.40;50.30;;;;;;5077944;28;20044;-55
2021/12/06 11:16:10;;;;;;;1.17;0.08;;;18.40;50.30;;;;;;5077642;28;20036;-54
2021/12/06 11:18:43;;;;;;;1.15;0.25;;;18.40;50.20;;;;;;5075210;28;20040;-54
2021/12/06 11:21:20;;;;;;;1.90;0.10;;;18.40;50.10;;;;;;5073954;28;20420;-51
2021/12/06 11:24:15;;;;;;;0.20;0.03;;;18.40;50.00;;;;;;5074226;28;20054;-54
2021/12/06 11:26:47;;;;;;;3.03;0.10;;;18.40;50.00;;;;;;5072953;28;20118;-53
2021/12/06 11:29:18;;;;;;;1.27;0.10;;;18.40;50.50;;;;;;5071943;28;27446;-50
2021/12/06 11:31:55;;;;;;;3.60;0.10;;;18.40;49.90;;;;;;5077959;28;20524;-51
2021/12/06 11:34:27;;;;;;;1.65;0.30;;;18.40;49.90;;;;;;5076003;28;20052;-55
2021/12/06 11:36:55;;;;;;;0.40;0.08;;;18.30;49.80;;;;;;5075298;28;20523;-53
2021/12/06 11:39:24;;;;;;;0.90;0.10;;;18.30;49.70;;;;;;5073528;28;20459;-53
2021/12/06 11:41:53;;;;;;;0.32;0.10;;;18.40;49.80;;;;;;5069288;28;20036;-50
2021/12/06 11:44:25;;;;;;;0.30;0.10;;;18.40;49.70;;;;;;5070763;28;20224;-49
2021/12/06 11:47:02;;;;;;;0.70;0.10;;;18.40;49.70;;;;;;5071421;28;20530;-51
2021/12/06 11:49:35;;;;;;;0.57;0.20;;;18.40;49.60;;;;;;5068605;28;20128;-54
2021/12/06 11:52:03;;;;;;;2.72;0.03;;;18.40;49.60;;;;;;5076669;28;20090;-53
2021/12/06 11:54:41;;;;;;;0.20;0.20;;;18.40;49.60;;;;;;5082347;28;20468;-54
2021/12/06 11:57:28;;;;;;;0.10;0.00;;;18.40;49.60;;;;;;5075238;28;20055;-52
2021/12/06 12:00:06;;;;;;;0.50;0.20;;;18.40;49.60;;;;;;5070555;28;20040;-47
2021/12/06 12:02:44;;;;;;;3.53;0.10;;;18.50;49.60;;;;;;5073422;28;20036;-49
2021/12/06 12:05:28;;;;;;;1.02;0.45;;;18.50;49.40;;;;;;5077626;28;20067;-49
2021/12/06 12:08:06;;;;;;;0.32;0.32;;;18.50;49.40;;;;;;5073110;28;20055;-53
2021/12/06 12:10:41;;;;;;;0.47;0.10;;;18.50;49.40;;;;;;5063791;28;20728;-50
2021/12/06 12:13:10;;;;;;;2.17;0.10;;;18.50;49.40;;;;;;5082409;28;20091;-49
2021/12/06 12:15:38;;;;;;;0.10;0.05;;;18.60;49.40;;;;;;5078579;28;20151;-48
2021/12/06 12:18:06;;;;;;;0.65;0.08;;;18.60;49.30;;;;;;5058462;28;20035;-51
2021/12/06 12:20:36;;;;;;;1.38;0.10;;;18.60;49.10;;;;;;5080633;28;20096;-49
2021/12/06 12:23:08;;;;;;;0.20;0.10;;;18.70;49.10;;;;;;5078872;28;20036;-48
2021/12/06 12:25:39;;;;;;;0.20;0.20;;;18.60;49.00;;;;;;5071555;28;20051;-53
2021/12/06 12:28:17;;;;;;;0.52;0.20;;;18.60;48.90;;;;;;5082439;28;20591;-53
2021/12/06 12:30:46;;;;;;;0.43;0.10;;;18.60;48.90;;;;;;5085584;28;20086;-50
2021/12/06 12:33:13;;;;;;;2.10;0.10;;;18.60;49.00;;;;;;5084330;28;20047;-54
2021/12/06 12:35:43;;;;;;;1.30;0.25;;;18.60;48.90;;;;;;5084475;28;20048;-55
2021/12/06 12:38:12;;;;;;;0.40;0.10;;;18.60;49.00;;;;;;5064609;28;20040;-48
2021/12/06 12:40:42;;;;;;;0.60;0.00;;;18.60;48.90;;;;;;5085839;28;20540;-52
2021/12/06 12:43:12;;;;;;;0.20;0.20;;;18.60;48.90;;;;;;5083804;28;20036;-53
2021/12/06 12:45:42;;;;;;;1.10;0.45;;;18.60;48.90;;;;;;5085914;28;20043;-53
2021/12/06 12:48:11;;;;;;;3.25;1.08;;;18.60;48.90;;;;;;5083815;28;20052;-53
2021/12/06 12:50:39;;;;;;;0.10;0.10;;;18.60;48.80;;;;;;5083384;28;20032;-53
2021/12/06 12:53:10;;;;;;;0.60;0.10;;;18.60;48.80;;;;;;5080513;28;20813;-53
2021/12/06 12:55:42;;;;;;;1.38;0.08;;;18.70;48.90;;;;;;5085907;28;20131;-53
2021/12/06 12:58:13;;;;;;;0.98;0.10;;;18.70;48.80;;;;;;5084548;28;20044;-54
2021/12/06 13:00:47;;;;;;;0.68;0.68;;;18.70;48.90;;;;;;5083750;28;20040;-58
2021/12/06 13:03:33;;;;;;;0.63;0.10;;;18.70;48.90;;;;;;5052114;28;20044;-63
2021/12/06 13:06:17;;;;;;;3.50;0.40;;;18.70;48.90;;;;;;5080874;28;20062;-61
2021/12/06 13:08:48;;;;;;;2.42;0.22;;;18.70;48.90;;;;;;5078714;28;20074;-49
2021/12/06 13:11:16;;;;;;;1.67;0.13;;;18.80;48.80;;;;;;5074918;28;20040;-48